Time;durP1;ratioP1;P1;durP2;ratioP2;P2;SDS_P1;SDS_P2;PMS_P1;PMS_P2;Temp;Humidity;BMP_temperature;BMP_pressure;BME280_temperature;BME280_humidity;BME280_pressure;Samples;Min_cycle;Max_cycle;Signal;HPM_P1;HPM_P2
2022/08/25 00:02:07;;;;;;;;;8.00;8.00;;;;;;;;5018411;28;8831;-78
2022/08/25 00:04:35;;;;;;;;;8.25;7.75;;;;;;;;5021103;28;8868;-78
2022/08/25 00:07:03;;;;;;;;;6.00;6.00;;;;;;;;5019717;28;8893;-78
2022/08/25 00:09:36;;;;;;;;;6.00;5.00;;;;;;;;5020870;28;8857;-78
2022/08/25 00:12:05;;;;;;;;;6.50;6.00;;;;;;;;5017434;28;8892;-78
2022/08/25 00:14:38;;;;;;;;;7.00;7.00;;;;;;;;5020523;28;8877;-78
2022/08/25 00:17:08;;;;;;;;;7.50;5.50;;;;;;;;5021412;28;8891;-79
2022/08/25 00:19:37;;;;;;;;;6.75;6.75;;;;;;;;5018801;28;8877;-78
2022/08/25 00:22:08;;;;;;;;;8.75;7.00;;;;;;;;5020826;28;8876;-78
2022/08/25 00:24:37;;;;;;;;;9.00;6.00;;;;;;;;5020059;28;8944;-78
2022/08/25 00:27:05;;;;;;;;;6.75;6.75;;;;;;;;5018607;28;8902;-79
2022/08/25 00:29:36;;;;;;;;;6.00;6.00;;;;;;;;5019330;28;9031;-78
2022/08/25 00:32:07;;;;;;;;;8.75;7.50;;;;;;;;4999735;28;8832;-79
2022/08/25 00:34:36;;;;;;;;;6.75;5.75;;;;;;;;5018881;28;8876;-78
2022/08/25 00:37:08;;;;;;;;;7.00;7.00;;;;;;;;5017116;28;8872;-79
2022/08/25 00:39:37;;;;;;;;;6.00;5.25;;;;;;;;5019342;28;8872;-78
2022/08/25 00:42:06;;;;;;;;;7.75;7.75;;;;;;;;5017704;28;8853;-78
2022/08/25 00:44:34;;;;;;;;;6.50;6.50;;;;;;;;5021197;28;9667;-79
2022/08/25 00:47:03;;;;;;;;;7.25;6.75;;;;;;;;5017546;28;8971;-78
2022/08/25 00:49:34;;;;;;;;;6.25;6.25;;;;;;;;5018412;28;9629;-78
2022/08/25 00:52:05;;;;;;;;;6.75;6.00;;;;;;;;5023245;28;10017;-78
2022/08/25 00:54:37;;;;;;;;;8.25;6.75;;;;;;;;5023184;28;9711;-78
2022/08/25 00:57:06;;;;;;;;;7.75;7.25;;;;;;;;5026836;28;8900;-78
2022/08/25 00:59:34;;;;;;;;;8.00;6.75;;;;;;;;5021972;28;8872;-78
2022/08/25 01:02:03;;;;;;;;;8.00;8.00;;;;;;;;5023320;28;8843;-78
2022/08/25 01:04:30;;;;;;;;;12.50;9.00;;;;;;;;5024661;28;8858;-79
2022/08/25 01:06:58;;;;;;;;;9.00;9.00;;;;;;;;5023800;28;8865;-79
2022/08/25 01:09:26;;;;;;;;;8.50;7.25;;;;;;;;5022855;28;9665;-78
2022/08/25 01:11:55;;;;;;;;;7.75;7.75;;;;;;;;5022314;28;8896;-78
2022/08/25 01:14:24;;;;;;;;;5.50;5.50;;;;;;;;5023946;28;8969;-78
2022/08/25 01:16:52;;;;;;;;;9.50;7.75;;;;;;;;5019503;28;8896;-78
2022/08/25 01:19:20;;;;;;;;;7.75;7.75;;;;;;;;5023133;28;8889;-78
2022/08/25 01:21:51;;;;;;;;;6.25;6.25;;;;;;;;5023249;28;8892;-78
2022/08/25 01:24:24;;;;;;;;;7.50;7.50;;;;;;;;5020578;28;8892;-78
2022/08/25 01:26:52;;;;;;;;;9.25;8.00;;;;;;;;5021874;28;8861;-79
2022/08/25 01:29:24;;;;;;;;;7.00;7.00;;;;;;;;5023092;28;8893;-78
2022/08/25 01:31:56;;;;;;;;;8.25;7.25;;;;;;;;5006661;28;8964;-78
2022/08/25 01:34:25;;;;;;;;;7.50;7.50;;;;;;;;5022381;28;8971;-78
2022/08/25 01:36:54;;;;;;;;;6.00;6.00;;;;;;;;5023936;28;8896;-78
2022/08/25 01:39:22;;;;;;;;;10.50;8.50;;;;;;;;5021186;28;8860;-78
2022/08/25 01:42:18;;;;;;;;;8.25;7.00;;;;;;;;5005982;28;8914;-79
2022/08/25 01:44:47;;;;;;;;;8.75;8.75;;;;;;;;5017050;28;8911;-78
2022/08/25 01:47:15;;;;;;;;;8.00;8.00;;;;;;;;5020624;28;8881;-78
2022/08/25 01:49:43;;;;;;;;;10.00;8.50;;;;;;;;5023114;28;8898;-78
2022/08/25 01:52:16;;;;;;;;;8.00;8.00;;;;;;;;5022449;28;8882;-78
2022/08/25 01:54:43;;;;;;;;;7.75;6.75;;;;;;;;5020057;28;8881;-79
2022/08/25 01:57:11;;;;;;;;;9.00;6.75;;;;;;;;5022568;28;8841;-80
2022/08/25 01:59:38;;;;;;;;;7.00;7.00;;;;;;;;5021187;28;8853;-79
2022/08/25 02:02:06;;;;;;;;;6.00;6.00;;;;;;;;5021372;28;8821;-79
2022/08/25 02:04:34;;;;;;;;;6.75;6.75;;;;;;;;5004309;28;8994;-79
2022/08/25 02:07:04;;;;;;;;;4.00;4.00;;;;;;;;5021105;28;8853;-78
2022/08/25 02:09:35;;;;;;;;;3.25;3.25;;;;;;;;5021183;28;8889;-78
2022/08/25 02:12:02;;;;;;;;;5.25;5.25;;;;;;;;5021340;28;8919;-79
2022/08/25 02:14:29;;;;;;;;;6.50;6.50;;;;;;;;5022200;28;8865;-78
2022/08/25 02:16:57;;;;;;;;;7.50;7.50;;;;;;;;5020746;28;9654;-78
2022/08/25 02:19:25;;;;;;;;;7.00;6.50;;;;;;;;5006283;28;8877;-78
2022/08/25 02:21:52;;;;;;;;;8.75;7.50;;;;;;;;5020621;28;8853;-78
2022/08/25 02:24:20;;;;;;;;;5.00;5.00;;;;;;;;5021935;28;8860;-79
2022/08/25 02:26:49;;;;;;;;;7.50;7.00;;;;;;;;5003033;28;9387;-78
2022/08/25 02:29:17;;;;;;;;;7.75;7.75;;;;;;;;5022625;28;8983;-78
2022/08/25 02:31:44;;;;;;;;;10.00;9.00;;;;;;;;5020748;28;9804;-79
2022/08/25 02:34:14;;;;;;;;;7.00;7.00;;;;;;;;5021770;28;8895;-79
2022/08/25 02:36:42;;;;;;;;;8.75;8.75;;;;;;;;5022697;28;8907;-79
2022/08/25 02:39:10;;;;;;;;;8.00;8.00;;;;;;;;5021566;28;8891;-79
2022/08/25 02:41:38;;;;;;;;;3.00;3.00;;;;;;;;5035009;28;8876;-78
2022/08/25 02:44:08;;;;;;;;;10.00;8.75;;;;;;;;5021229;28;8919;-78
2022/08/25 02:46:37;;;;;;;;;5.00;5.00;;;;;;;;5020868;28;8869;-78
2022/08/25 02:49:05;;;;;;;;;8.00;8.00;;;;;;;;5021768;28;8861;-79
2022/08/25 02:51:33;;;;;;;;;7.00;7.00;;;;;;;;5021246;28;8905;-78
2022/08/25 02:54:01;;;;;;;;;7.25;7.25;;;;;;;;5018052;28;8869;-78
2022/08/25 02:56:29;;;;;;;;;9.00;9.00;;;;;;;;5016955;28;8897;-78
2022/08/25 02:58:57;;;;;;;;;10.50;7.75;;;;;;;;5022712;28;8911;-78
2022/08/25 03:01:26;;;;;;;;;7.75;7.75;;;;;;;;5020151;28;8801;-79
2022/08/25 03:03:53;;;;;;;;;8.75;7.75;;;;;;;;5002964;28;10122;-78
2022/08/25 03:06:23;;;;;;;;;9.75;8.75;;;;;;;;5019620;28;9202;-78
2022/08/25 03:08:50;;;;;;;;;9.75;8.00;;;;;;;;5018983;28;8876;-78
2022/08/25 03:11:18;;;;;;;;;7.00;5.00;;;;;;;;5022356;28;8848;-78
2022/08/25 03:13:47;;;;;;;;;6.25;6.25;;;;;;;;5002602;28;8946;-78
2022/08/25 03:16:14;;;;;;;;;7.00;7.00;;;;;;;;5021924;28;8901;-78
2022/08/25 03:18:44;;;;;;;;;6.25;6.25;;;;;;;;5001365;28;8869;-77
2022/08/25 03:21:12;;;;;;;;;6.75;6.75;;;;;;;;5022605;28;8903;-77
2022/08/25 03:23:41;;;;;;;;;6.75;5.75;;;;;;;;5021311;28;9717;-77
2022/08/25 03:28:54;;;;;;;;;6.75;6.75;;;;;;;;5023234;28;8833;-77
2022/08/25 03:31:21;;;;;;;;;10.00;7.75;;;;;;;;5019981;28;8876;-78
2022/08/25 03:33:50;;;;;;;;;6.75;6.75;;;;;;;;5019172;28;8906;-79
2022/08/25 03:36:17;;;;;;;;;8.50;8.50;;;;;;;;5017480;28;8942;-78
2022/08/25 03:38:45;;;;;;;;;8.50;7.00;;;;;;;;5020626;28;9670;-79
2022/08/25 03:41:15;;;;;;;;;7.00;7.00;;;;;;;;5007607;28;8880;-79
2022/08/25 03:43:42;;;;;;;;;8.50;8.50;;;;;;;;5021731;28;8900;-79
2022/08/25 03:46:15;;;;;;;;;9.00;7.75;;;;;;;;5021701;28;8896;-79
2022/08/25 03:48:42;;;;;;;;;8.25;6.50;;;;;;;;5021588;28;8839;-79
2022/08/25 03:51:13;;;;;;;;;7.75;7.25;;;;;;;;5021939;28;8876;-78
2022/08/25 03:53:40;;;;;;;;;10.00;10.00;;;;;;;;5021493;28;8877;-79
2022/08/25 03:56:08;;;;;;;;;4.00;4.00;;;;;;;;5018147;28;8887;-79
2022/08/25 03:58:38;;;;;;;;;7.00;7.00;;;;;;;;5021871;28;8888;-78
2022/08/25 04:01:08;;;;;;;;;7.25;7.25;;;;;;;;5020193;28;8820;-78
2022/08/25 04:03:36;;;;;;;;;6.00;6.00;;;;;;;;5007521;28;8899;-78
2022/08/25 04:06:05;;;;;;;;;7.00;7.00;;;;;;;;5020348;28;9107;-78
2022/08/25 04:08:35;;;;;;;;;6.25;6.25;;;;;;;;5021579;28;8896;-78
2022/08/25 04:11:07;;;;;;;;;7.00;7.00;;;;;;;;5020490;28;8909;-78
2022/08/25 04:13:37;;;;;;;;;9.50;9.50;;;;;;;;5019426;28;8903;-78
2022/08/25 04:16:11;;;;;;;;;6.25;6.25;;;;;;;;5021188;28;8864;-79
2022/08/25 04:18:38;;;;;;;;;8.75;8.00;;;;;;;;5018191;28;8852;-78
2022/08/25 04:21:10;;;;;;;;;6.50;6.50;;;;;;;;5022032;28;8876;-79
2022/08/25 04:23:40;;;;;;;;;7.75;7.75;;;;;;;;5019752;28;8887;-79
2022/08/25 04:26:10;;;;;;;;;7.00;7.00;;;;;;;;5024801;28;8872;-79
2022/08/25 04:28:38;;;;;;;;;6.00;6.00;;;;;;;;5027792;28;8921;-79
2022/08/25 04:31:07;;;;;;;;;6.50;6.50;;;;;;;;5027786;28;8853;-79
2022/08/25 04:33:37;;;;;;;;;6.75;6.75;;;;;;;;5027052;28;8881;-79
2022/08/25 04:36:06;;;;;;;;;8.75;7.00;;;;;;;;5025745;28;8861;-79
2022/08/25 04:38:34;;;;;;;;;8.25;7.75;;;;;;;;5025639;28;8934;-79
2022/08/25 04:41:06;;;;;;;;;8.00;8.00;;;;;;;;5027459;28;8879;-78
2022/08/25 04:43:38;;;;;;;;;6.25;6.25;;;;;;;;5028317;28;8926;-78
2022/08/25 04:46:06;;;;;;;;;7.75;6.00;;;;;;;;5025633;28;8892;-77
2022/08/25 04:48:38;;;;;;;;;10.75;10.00;;;;;;;;5027178;28;8853;-77
2022/08/25 04:51:06;;;;;;;;;7.50;7.50;;;;;;;;5027319;28;8848;-77
2022/08/25 04:53:34;;;;;;;;;7.75;7.75;;;;;;;;5009258;28;8910;-78
2022/08/25 04:56:06;;;;;;;;;7.25;7.25;;;;;;;;5011997;28;8881;-77
2022/08/25 04:58:34;;;;;;;;;8.00;8.00;;;;;;;;5026446;28;8896;-78
2022/08/25 05:01:03;;;;;;;;;7.75;7.75;;;;;;;;5026705;28;8836;-78
2022/08/25 05:03:31;;;;;;;;;9.75;8.25;;;;;;;;5023754;28;8975;-79
2022/08/25 05:05:58;;;;;;;;;8.00;8.00;;;;;;;;5012441;28;8919;-78
2022/08/25 05:08:26;;;;;;;;;8.00;8.00;;;;;;;;5027805;28;8885;-77
2022/08/25 05:10:55;;;;;;;;;7.50;7.50;;;;;;;;5025853;28;8881;-78
2022/08/25 05:13:25;;;;;;;;;8.00;8.00;;;;;;;;5027724;28;8895;-78
2022/08/25 05:15:54;;;;;;;;;8.00;8.00;;;;;;;;5025337;28;8864;-78
2022/08/25 05:18:22;;;;;;;;;9.25;9.25;;;;;;;;5027124;28;8872;-78
2022/08/25 05:20:50;;;;;;;;;8.00;8.00;;;;;;;;5023931;28;8975;-78
2022/08/25 05:23:18;;;;;;;;;7.25;7.25;;;;;;;;5027582;28;8903;-78
2022/08/25 05:25:45;;;;;;;;;8.25;8.25;;;;;;;;5027715;28;8873;-78
2022/08/25 05:28:13;;;;;;;;;8.00;8.00;;;;;;;;5009718;28;8864;-79
2022/08/25 05:30:43;;;;;;;;;10.00;8.75;;;;;;;;5012622;28;8906;-78
2022/08/25 05:33:12;;;;;;;;;12.00;9.75;;;;;;;;5025691;28;8983;-77
2022/08/25 05:35:40;;;;;;;;;8.00;8.00;;;;;;;;5027060;28;8968;-78
2022/08/25 05:38:07;;;;;;;;;8.50;8.00;;;;;;;;5021478;28;8869;-77
2022/08/25 05:40:35;;;;;;;;;10.25;10.25;;;;;;;;5024410;28;9780;-79
2022/08/25 05:43:02;;;;;;;;;9.75;8.00;;;;;;;;5024284;28;9014;-79
2022/08/25 05:45:30;;;;;;;;;10.00;9.00;;;;;;;;5023171;28;8892;-79
2022/08/25 05:47:59;;;;;;;;;8.00;8.00;;;;;;;;5021894;28;8891;-78
2022/08/25 05:50:27;;;;;;;;;9.50;9.50;;;;;;;;5023407;28;8897;-78
2022/08/25 05:52:55;;;;;;;;;8.25;8.25;;;;;;;;5022450;28;8864;-78
2022/08/25 05:55:22;;;;;;;;;9.00;9.00;;;;;;;;5021959;28;8905;-77
2022/08/25 05:57:50;;;;;;;;;9.00;9.00;;;;;;;;5023089;28;8881;-77
2022/08/25 06:00:17;;;;;;;;;9.00;7.00;;;;;;;;5020546;28;8873;-78
2022/08/25 06:02:45;;;;;;;;;9.50;9.50;;;;;;;;5021568;28;9643;-78
2022/08/25 06:05:16;;;;;;;;;8.50;8.50;;;;;;;;5024556;28;8903;-78
2022/08/25 06:07:43;;;;;;;;;9.75;9.25;;;;;;;;5021688;28;9672;-79
2022/08/25 06:10:12;;;;;;;;;8.25;8.25;;;;;;;;5019753;28;8876;-79
2022/08/25 06:12:43;;;;;;;;;10.00;10.00;;;;;;;;5021006;28;9027;-79
2022/08/25 06:15:11;;;;;;;;;10.00;8.25;;;;;;;;5022233;28;8967;-80
2022/08/25 06:17:41;;;;;;;;;10.50;9.00;;;;;;;;4998495;28;8948;-80
2022/08/25 06:20:11;;;;;;;;;11.00;9.25;;;;;;;;5001928;28;8859;-80
2022/08/25 06:22:40;;;;;;;;;8.00;8.00;;;;;;;;5009761;28;9699;-83
2022/08/25 06:25:12;;;;;;;;;10.25;9.50;;;;;;;;5006409;28;9736;-87
2022/08/25 06:27:40;;;;;;;;;9.25;9.25;;;;;;;;5007300;28;8889;-81
2022/08/25 06:30:11;;;;;;;;;8.00;8.00;;;;;;;;5003911;28;8866;-84
2022/08/25 06:32:41;;;;;;;;;9.00;9.00;;;;;;;;5003675;28;8957;-82
2022/08/25 06:35:11;;;;;;;;;13.00;13.00;;;;;;;;5001600;28;8862;-87
2022/08/25 06:37:41;;;;;;;;;10.00;10.00;;;;;;;;5002215;28;9751;-84
2022/08/25 06:40:10;;;;;;;;;10.00;10.00;;;;;;;;5004291;28;8870;-82
2022/08/25 06:42:37;;;;;;;;;11.25;10.00;;;;;;;;5006363;28;8874;-84
2022/08/25 06:45:07;;;;;;;;;10.00;9.50;;;;;;;;5004527;28;8901;-84
2022/08/25 06:47:34;;;;;;;;;8.75;8.75;;;;;;;;4999954;28;9664;-82
2022/08/25 06:50:03;;;;;;;;;11.00;11.00;;;;;;;;5003424;28;8972;-84
2022/08/25 06:52:31;;;;;;;;;9.50;8.50;;;;;;;;5003962;28;8886;-85
2022/08/25 06:55:00;;;;;;;;;10.00;10.00;;;;;;;;5004246;28;8882;-83
2022/08/25 06:57:28;;;;;;;;;9.60;9.60;;;;;;;;5003503;28;8961;-86
2022/08/25 06:59:55;;;;;;;;;10.20;8.80;;;;;;;;5001604;28;8870;-84
2022/08/25 07:02:22;;;;;;;;;8.20;8.20;;;;;;;;4998874;28;8830;-82
2022/08/25 07:04:52;;;;;;;;;13.40;10.40;;;;;;;;5000152;28;9544;-79
2022/08/25 07:07:20;;;;;;;;;10.40;10.40;;;;;;;;5002524;28;8858;-82
2022/08/25 07:09:47;;;;;;;;;9.60;9.60;;;;;;;;5002068;28;8891;-83
2022/08/25 07:12:16;;;;;;;;;9.40;9.40;;;;;;;;5003015;28;8882;-79
2022/08/25 07:14:43;;;;;;;;;10.20;9.00;;;;;;;;5000949;28;9009;-80
2022/08/25 07:17:12;;;;;;;;;9.00;9.00;;;;;;;;5011220;28;8853;-84
2022/08/25 07:19:39;;;;;;;;;10.00;10.00;;;;;;;;5020486;28;9005;-84
2022/08/25 07:22:06;;;;;;;;;10.60;9.80;;;;;;;;5037817;28;9004;-81
2022/08/25 07:24:33;;;;;;;;;9.40;9.40;;;;;;;;5023186;28;8886;-82
2022/08/25 07:27:01;;;;;;;;;9.40;9.40;;;;;;;;5021782;28;8865;-82
2022/08/25 07:29:31;;;;;;;;;8.60;7.00;;;;;;;;5022520;28;9486;-88
2022/08/25 07:31:59;;;;;;;;;9.80;9.80;;;;;;;;5022262;28;8806;-84
2022/08/25 07:37:11;;;;;;;;;8.80;8.80;;;;;;;;5020786;28;8853;-79
2022/08/25 07:39:38;;;;;;;;;8.80;8.80;;;;;;;;5019335;28;8881;-82
2022/08/25 07:42:08;;;;;;;;;8.20;8.20;;;;;;;;5020972;28;8881;-79
2022/08/25 07:44:36;;;;;;;;;6.60;6.60;;;;;;;;5015932;28;8848;-82
2022/08/25 07:47:04;;;;;;;;;8.20;8.20;;;;;;;;5023435;28;8881;-87
2022/08/25 07:49:31;;;;;;;;;7.40;7.40;;;;;;;;5025751;28;8850;-86
2022/08/25 07:51:59;;;;;;;;;7.00;7.00;;;;;;;;5022217;28;9481;-81
2022/08/25 07:54:27;;;;;;;;;10.40;9.20;;;;;;;;5024245;28;8848;-87
2022/08/25 07:56:54;;;;;;;;;7.80;7.80;;;;;;;;5020163;28;8893;-86
2022/08/25 07:59:22;;;;;;;;;7.60;7.60;;;;;;;;5024694;28;8868;-84
2022/08/25 08:01:51;;;;;;;;;7.00;7.00;;;;;;;;5024647;28;8826;-80
2022/08/25 08:04:18;;;;;;;;;7.40;7.40;;;;;;;;5023034;28;8884;-82
2022/08/25 08:06:46;;;;;;;;;8.40;7.60;;;;;;;;5009415;28;8853;-81
2022/08/25 08:09:14;;;;;;;;;7.60;7.60;;;;;;;;5022016;28;8877;-82
2022/08/25 08:11:43;;;;;;;;;8.00;6.00;;;;;;;;5021687;28;9000;-82
2022/08/25 08:14:12;;;;;;;;;9.00;7.20;;;;;;;;5018694;28;9015;-83
2022/08/25 08:16:39;;;;;;;;;8.00;7.00;;;;;;;;5019627;28;9652;-82
2022/08/25 08:19:08;;;;;;;;;7.00;7.00;;;;;;;;5020673;28;8876;-85
2022/08/25 08:21:37;;;;;;;;;8.00;8.00;;;;;;;;5022427;28;8962;-78
2022/08/25 08:24:06;;;;;;;;;6.40;5.60;;;;;;;;5018126;28;8879;-86
2022/08/25 08:26:34;;;;;;;;;8.00;6.40;;;;;;;;5018698;28;8877;-78
2022/08/25 08:29:02;;;;;;;;;8.60;8.60;;;;;;;;5017732;28;8880;-79
2022/08/25 08:31:29;;;;;;;;;7.60;7.60;;;;;;;;5017086;28;8950;-79
2022/08/25 08:33:57;;;;;;;;;8.60;8.60;;;;;;;;5018635;28;8885;-78
2022/08/25 08:36:27;;;;;;;;;10.80;10.80;;;;;;;;5012923;28;8883;-79
2022/08/25 08:38:55;;;;;;;;;8.80;8.80;;;;;;;;5019905;28;8896;-77
2022/08/25 08:44:34;;;;;;;;;7.20;7.20;;;;;;;;5016049;28;8848;-77
2022/08/25 08:47:10;;;;;;;;;8.60;7.80;;;;;;;;5017976;28;9627;-78
2022/08/25 08:49:44;;;;;;;;;10.20;10.20;;;;;;;;5001018;28;8889;-78
2022/08/25 08:52:16;;;;;;;;;6.80;6.80;;;;;;;;5019167;28;8904;-79
2022/08/25 08:54:46;;;;;;;;;8.00;8.00;;;;;;;;5018893;28;8913;-77
2022/08/25 08:57:16;;;;;;;;;7.20;7.20;;;;;;;;5001563;28;8899;-80
2022/08/25 08:59:49;;;;;;;;;8.60;8.60;;;;;;;;5017677;28;8837;-79
2022/08/25 09:02:23;;;;;;;;;12.40;10.40;;;;;;;;5000143;28;8817;-80
2022/08/25 09:04:56;;;;;;;;;7.00;7.00;;;;;;;;5020771;28;9724;-79
2022/08/25 09:07:29;;;;;;;;;6.80;6.80;;;;;;;;5019750;28;8938;-80
2022/08/25 09:09:57;;;;;;;;;7.80;6.00;;;;;;;;5020406;28;8860;-80
2022/08/25 09:12:36;;;;;;;;;6.00;6.00;;;;;;;;5022188;28;8975;-78
2022/08/25 09:15:10;;;;;;;;;7.60;6.20;;;;;;;;5022633;28;8962;-75
2022/08/25 09:17:55;;;;;;;;;6.20;6.20;;;;;;;;5022503;28;9006;-77
2022/08/25 09:20:41;;;;;;;;;7.80;7.80;;;;;;;;5018666;28;8875;-75
2022/08/25 09:23:18;;;;;;;;;6.40;6.00;;;;;;;;5024088;28;8896;-76
2022/08/25 09:25:53;;;;;;;;;7.40;7.40;;;;;;;;5023903;28;8853;-79
2022/08/25 09:28:22;;;;;;;;;5.80;5.80;;;;;;;;5022991;28;8971;-79
2022/08/25 09:30:55;;;;;;;;;7.60;6.40;;;;;;;;5023035;28;8833;-79
2022/08/25 09:33:24;;;;;;;;;6.20;6.20;;;;;;;;5022514;28;8987;-76
2022/08/25 09:35:53;;;;;;;;;5.20;5.20;;;;;;;;5023755;28;9619;-77
2022/08/25 09:38:23;;;;;;;;;6.60;4.80;;;;;;;;5023886;28;8857;-76
2022/08/25 09:40:54;;;;;;;;;6.80;6.80;;;;;;;;5023026;28;9635;-77
2022/08/25 09:43:24;;;;;;;;;5.20;5.20;;;;;;;;5021240;28;8852;-75
2022/08/25 09:45:59;;;;;;;;;6.40;6.40;;;;;;;;5016104;28;8892;-76
2022/08/25 09:48:28;;;;;;;;;11.00;7.80;;;;;;;;5020257;28;8884;-79
2022/08/25 09:51:00;;;;;;;;;7.00;7.00;;;;;;;;5023422;28;8856;-76
2022/08/25 09:53:30;;;;;;;;;7.00;7.00;;;;;;;;5005779;28;10424;-77
2022/08/25 09:56:04;;;;;;;;;8.80;8.40;;;;;;;;5023008;28;8865;-77
2022/08/25 09:58:33;;;;;;;;;7.00;7.00;;;;;;;;5018681;28;8837;-77
2022/08/25 10:01:21;;;;;;;;;6.80;6.80;;;;;;;;5021326;28;8808;-77
2022/08/25 10:04:00;;;;;;;;;10.00;6.80;;;;;;;;5017516;28;8939;-78
2022/08/25 10:06:30;;;;;;;;;5.40;5.40;;;;;;;;5023248;28;8892;-79
2022/08/25 10:09:05;;;;;;;;;5.60;5.60;;;;;;;;5002337;28;8872;-79
2022/08/25 10:11:41;;;;;;;;;8.20;8.20;;;;;;;;5022285;28;9103;-78
2022/08/25 10:14:27;;;;;;;;;7.00;7.00;;;;;;;;5022454;28;9049;-81
2022/08/25 10:17:13;;;;;;;;;5.60;5.60;;;;;;;;5014384;28;8928;-78
2022/08/25 10:19:41;;;;;;;;;7.80;7.80;;;;;;;;5021266;28;8873;-82
2022/08/25 10:22:11;;;;;;;;;7.60;7.00;;;;;;;;5020579;28;8905;-79
2022/08/25 10:24:41;;;;;;;;;6.20;6.20;;;;;;;;5018600;28;8880;-78
2022/08/25 10:27:18;;;;;;;;;7.80;7.80;;;;;;;;5019847;28;9088;-79
2022/08/25 10:30:05;;;;;;;;;5.00;5.00;;;;;;;;5021425;28;8856;-84
2022/08/25 10:33:01;;;;;;;;;7.00;7.00;;;;;;;;5020531;28;8836;-78
2022/08/25 10:35:34;;;;;;;;;5.80;5.80;;;;;;;;5021625;28;8841;-81
2022/08/25 10:38:11;;;;;;;;;9.00;7.00;;;;;;;;5004131;28;8884;-75
2022/08/25 10:40:46;;;;;;;;;7.00;7.00;;;;;;;;5021856;28;9537;-79
2022/08/25 10:43:21;;;;;;;;;7.20;7.20;;;;;;;;5004814;28;9673;-77
2022/08/25 10:45:53;;;;;;;;;8.20;8.20;;;;;;;;5002253;28;8873;-77
2022/08/25 10:48:40;;;;;;;;;6.00;6.00;;;;;;;;5005892;28;8877;-77
2022/08/25 10:51:21;;;;;;;;;7.00;7.00;;;;;;;;5007778;28;9626;-77
2022/08/25 10:53:55;;;;;;;;;5.40;5.40;;;;;;;;5024649;28;8956;-78
2022/08/25 10:56:27;;;;;;;;;5.60;5.60;;;;;;;;5022672;28;8914;-76
2022/08/25 10:59:23;;;;;;;;;7.00;7.00;;;;;;;;5019114;28;8880;-77
2022/08/25 11:02:13;;;;;;;;;5.60;5.00;;;;;;;;5023046;28;8825;-78
2022/08/25 11:04:45;;;;;;;;;8.40;7.00;;;;;;;;5021310;28;8991;-77
2022/08/25 11:07:19;;;;;;;;;7.80;7.80;;;;;;;;5023035;28;8873;-77
2022/08/25 11:09:49;;;;;;;;;7.00;6.40;;;;;;;;5022691;28;9678;-77
2022/08/25 11:12:27;;;;;;;;;6.20;6.20;;;;;;;;5022145;28;8876;-77
2022/08/25 11:14:57;;;;;;;;;5.80;5.80;;;;;;;;5019874;28;8872;-77
2022/08/25 11:17:27;;;;;;;;;5.60;5.60;;;;;;;;5020414;28;8885;-76
2022/08/25 11:19:57;;;;;;;;;8.00;6.40;;;;;;;;5022627;28;8888;-78
2022/08/25 11:22:32;;;;;;;;;6.20;6.20;;;;;;;;5021766;28;8880;-76
2022/08/25 11:25:11;;;;;;;;;7.40;7.40;;;;;;;;5021174;28;8965;-78
2022/08/25 11:27:47;;;;;;;;;6.00;6.00;;;;;;;;5020051;28;8988;-77
2022/08/25 11:30:17;;;;;;;;;6.60;6.60;;;;;;;;5018976;28;8887;-78
2022/08/25 11:32:47;;;;;;;;;5.40;5.00;;;;;;;;5005935;28;8876;-77
2022/08/25 11:35:16;;;;;;;;;4.20;3.00;;;;;;;;5020528;28;8865;-79
2022/08/25 11:37:53;;;;;;;;;5.00;5.00;;;;;;;;5022140;28;8876;-77
2022/08/25 11:40:36;;;;;;;;;3.80;3.80;;;;;;;;5021948;28;8931;-76
2022/08/25 11:43:16;;;;;;;;;3.80;3.80;;;;;;;;5021241;28;8906;-79
2022/08/25 11:46:06;;;;;;;;;6.60;6.60;;;;;;;;5001975;28;8865;-82
2022/08/25 11:48:42;;;;;;;;;6.60;6.60;;;;;;;;5019815;28;9619;-77
2022/08/25 11:51:12;;;;;;;;;6.80;6.80;;;;;;;;5002940;28;9008;-79
2022/08/25 11:53:41;;;;;;;;;5.20;5.20;;;;;;;;5022254;28;8950;-79
2022/08/25 11:56:11;;;;;;;;;4.80;4.80;;;;;;;;5020806;28;8911;-80
2022/08/25 11:58:43;;;;;;;;;5.00;5.00;;;;;;;;5022083;28;8899;-78
2022/08/25 12:01:42;;;;;;;;;7.00;5.40;;;;;;;;5020195;28;8954;-78
2022/08/25 12:04:14;;;;;;;;;6.80;6.00;;;;;;;;5021827;28;8911;-80
2022/08/25 12:07:23;;;;;;;;;4.60;4.60;;;;;;;;5022670;28;8905;-78
2022/08/25 12:10:18;;;;;;;;;5.40;5.40;;;;;;;;4993573;28;9724;-80
2022/08/25 12:13:01;;;;;;;;;5.60;5.60;;;;;;;;5007463;28;8885;-79
2022/08/25 12:15:34;;;;;;;;;6.00;6.00;;;;;;;;5021016;28;8864;-78
2022/08/25 12:18:11;;;;;;;;;5.60;5.60;;;;;;;;5003417;28;8889;-80
2022/08/25 12:21:13;;;;;;;;;4.60;4.60;;;;;;;;5021363;28;8886;-78
2022/08/25 12:23:42;;;;;;;;;5.40;5.40;;;;;;;;5020035;28;8922;-79
2022/08/25 12:26:17;;;;;;;;;5.40;5.00;;;;;;;;5020259;28;8885;-77
2022/08/25 12:29:01;;;;;;;;;5.00;5.00;;;;;;;;5012978;28;8884;-79
2022/08/25 12:31:52;;;;;;;;;6.20;5.80;;;;;;;;5013416;28;8973;-77
2022/08/25 12:34:36;;;;;;;;;5.40;5.40;;;;;;;;5014643;28;8868;-83
2022/08/25 12:37:10;;;;;;;;;5.00;5.00;;;;;;;;5016465;28;8856;-78
2022/08/25 12:39:45;;;;;;;;;6.00;6.00;;;;;;;;5014286;28;8878;-78
2022/08/25 12:42:23;;;;;;;;;5.40;5.40;;;;;;;;5016197;28;8994;-76
2022/08/25 12:45:27;;;;;;;;;5.60;5.00;;;;;;;;5015806;28;8856;-78
2022/08/25 12:47:56;;;;;;;;;5.20;5.00;;;;;;;;5018574;28;9018;-75
2022/08/25 12:50:35;;;;;;;;;6.20;5.20;;;;;;;;5024254;28;8885;-76
2022/08/25 12:53:11;;;;;;;;;7.00;7.00;;;;;;;;5022531;28;8902;-75
2022/08/25 12:55:44;;;;;;;;;5.80;5.80;;;;;;;;5023920;28;8876;-76
2022/08/25 12:58:12;;;;;;;;;5.20;5.20;;;;;;;;5019073;28;8911;-76
2022/08/25 13:00:57;;;;;;;;;4.80;4.80;;;;;;;;5023159;28;8809;-77
2022/08/25 13:03:57;;;;;;;;;5.50;5.50;;;;;;;;5021689;28;8891;-76
2022/08/25 13:06:36;;;;;;;;;6.00;5.75;;;;;;;;5021425;28;8873;-79
2022/08/25 13:09:27;;;;;;;;;6.00;6.00;;;;;;;;5022653;28;8865;-78
2022/08/25 13:12:03;;;;;;;;;8.00;8.00;;;;;;;;5023039;28;8973;-77
2022/08/25 13:14:37;;;;;;;;;6.20;6.20;;;;;;;;5024606;28;9626;-80
2022/08/25 13:17:04;;;;;;;;;5.80;5.80;;;;;;;;5022105;28;8860;-80
2022/08/25 13:19:33;;;;;;;;;7.00;6.00;;;;;;;;5020955;28;9036;-81
2022/08/25 13:22:03;;;;;;;;;7.00;7.00;;;;;;;;5023665;28;9717;-80
2022/08/25 13:24:33;;;;;;;;;5.20;5.20;;;;;;;;5024500;28;8844;-79
2022/08/25 13:27:03;;;;;;;;;7.00;5.60;;;;;;;;5022496;28;8877;-79
2022/08/25 13:29:32;;;;;;;;;6.00;6.00;;;;;;;;5024017;28;8895;-80
2022/08/25 13:32:03;;;;;;;;;5.00;5.00;;;;;;;;5023351;28;8824;-80
2022/08/25 13:34:34;;;;;;;;;6.00;6.00;;;;;;;;5026029;28;8865;-79
2022/08/25 13:39:52;;;;;;;;;5.00;5.00;;;;;;;;5027524;28;8848;-79
2022/08/25 13:42:19;;;;;;;;;5.80;5.80;;;;;;;;5028152;28;8848;-80
2022/08/25 13:44:46;;;;;;;;;6.20;6.20;;;;;;;;5026000;28;9049;-78
2022/08/25 13:47:17;;;;;;;;;8.20;7.00;;;;;;;;5027663;28;8887;-79
2022/08/25 13:49:47;;;;;;;;;4.00;4.00;;;;;;;;5025879;28;8908;-79
2022/08/25 13:52:18;;;;;;;;;5.60;5.60;;;;;;;;5025630;28;8876;-80
2022/08/25 13:54:46;;;;;;;;;7.20;7.20;;;;;;;;5024111;28;8907;-79
2022/08/25 13:57:23;;;;;;;;;5.40;5.40;;;;;;;;5023755;28;8888;-80
2022/08/25 13:59:52;;;;;;;;;4.00;4.00;;;;;;;;5022782;28;8890;-80
2022/08/25 14:02:42;;;;;;;;;7.00;7.00;;;;;;;;5022799;28;8836;-80
2022/08/25 14:05:12;;;;;;;;;7.60;6.60;;;;;;;;5024367;28;8989;-80
2022/08/25 14:07:39;;;;;;;;;5.20;5.00;;;;;;;;5021154;28;8970;-80
2022/08/25 14:10:08;;;;;;;;;5.40;5.40;;;;;;;;5023863;28;8987;-81
2022/08/25 14:12:39;;;;;;;;;5.60;5.60;;;;;;;;5023761;28;8995;-81
2022/08/25 14:15:28;;;;;;;;;3.40;3.40;;;;;;;;5023597;28;8872;-80
2022/08/25 14:18:03;;;;;;;;;3.80;3.80;;;;;;;;5023498;28;8876;-83
2022/08/25 14:20:33;;;;;;;;;4.60;4.60;;;;;;;;5022157;28;9017;-81
2022/08/25 14:23:04;;;;;;;;;5.40;5.40;;;;;;;;5023735;28;8978;-81
2022/08/25 14:25:33;;;;;;;;;6.00;6.00;;;;;;;;5023292;28;8868;-80
2022/08/25 14:28:02;;;;;;;;;7.00;5.60;;;;;;;;5022115;28;8913;-81
2022/08/25 14:30:31;;;;;;;;;5.60;5.60;;;;;;;;5008173;28;8845;-82
2022/08/25 14:32:58;;;;;;;;;7.00;7.00;;;;;;;;5021605;28;8889;-80
2022/08/25 14:35:26;;;;;;;;;6.40;6.40;;;;;;;;5021378;28;9623;-80
2022/08/25 14:37:55;;;;;;;;;5.00;5.00;;;;;;;;5022035;28;8852;-81
2022/08/25 14:40:22;;;;;;;;;7.00;7.00;;;;;;;;5024562;28;9664;-83
2022/08/25 14:42:50;;;;;;;;;6.20;6.20;;;;;;;;5022453;28;8999;-82
2022/08/25 14:45:18;;;;;;;;;8.00;8.00;;;;;;;;5040227;28;8905;-78
2022/08/25 14:47:47;;;;;;;;;6.00;6.00;;;;;;;;5023781;28;8868;-79
2022/08/25 14:50:15;;;;;;;;;7.40;7.40;;;;;;;;5022475;28;8892;-79
2022/08/25 14:52:44;;;;;;;;;7.20;5.80;;;;;;;;5023252;28;8864;-80
2022/08/25 14:55:13;;;;;;;;;8.80;8.80;;;;;;;;5022091;28;8893;-80
2022/08/25 14:57:40;;;;;;;;;9.60;8.60;;;;;;;;5023206;28;8864;-80
2022/08/25 15:00:10;;;;;;;;;8.40;8.40;;;;;;;;5021870;28;8877;-80
2022/08/25 15:02:41;;;;;;;;;9.00;7.60;;;;;;;;5022797;28;8891;-80
2022/08/25 15:05:11;;;;;;;;;12.00;10.00;;;;;;;;5023821;28;8875;-81
2022/08/25 15:10:24;;;;;;;;;9.00;7.40;;;;;;;;5022334;28;8852;-79
2022/08/25 15:12:51;;;;;;;;;9.60;9.60;;;;;;;;5022488;28;8889;-79
2022/08/25 15:15:19;;;;;;;;;6.80;6.20;;;;;;;;5022843;28;8899;-80
2022/08/25 15:17:47;;;;;;;;;9.60;9.60;;;;;;;;5022294;28;9442;-79
2022/08/25 15:20:15;;;;;;;;;9.20;9.20;;;;;;;;5021820;28;8900;-78
2022/08/25 15:22:44;;;;;;;;;10.00;10.00;;;;;;;;5022536;28;8892;-80
2022/08/25 15:25:11;;;;;;;;;8.00;8.00;;;;;;;;5021331;28;9700;-79
2022/08/25 15:27:40;;;;;;;;;7.80;7.80;;;;;;;;5023785;28;8888;-81
2022/08/25 15:30:09;;;;;;;;;10.20;8.80;;;;;;;;5003161;28;8919;-81
2022/08/25 15:32:37;;;;;;;;;8.00;8.00;;;;;;;;5022518;28;8889;-79
2022/08/25 15:35:05;;;;;;;;;6.80;6.80;;;;;;;;5021974;28;8888;-82